EGPK/PIK METAR and TAF weather

Enter ICAO airport designator
Station Type Date Time Source
EGPK METAR 2019/02/23 02:50 UTC NOAA

EGPK 230250Z 13011KT 9999 FEW035 10/05 Q1026


Station Type Date Time Source
EGPK Decoded METAR 2019/02/23 02:50 UTC NOAA

Prestwick Airport, United Kingdom (EGPK) 55-30N 004-35W 0M
Feb 22, 2019 - 09:50 PM EST / 2019.02.23 0250 UTC
Wind: from the SE (130 degrees) at 13 MPH (11 KT):0
Visibility: greater than 7 mile(s):0
Sky conditions: mostly clear
Temperature: 50 F (10 C)
Dew Point: 41 F (5 C)
Relative Humidity: 71%
Pressure (altimeter): 30.30 in. Hg (1026 hPa)
ob: EGPK 230250Z 13011KT 9999 FEW035 10/05 Q1026
cycle: 3

Station Type Date Time Source
EGPK TAF 2019/02/22 20:38 UTC NOAA

TAF
AMD EGPK 222032Z 2220/2318 15009KT 9999 SCT020
TEMPO 2220/2312 16015G25KT
TEMPO 2221/2309 6000 PROB40
TEMPO 2301/2304 4000 BR
TEMPO 2313/2316 6000 RA BKN012 PROB40
TEMPO 2314/2316 3000 +RA BKN008 PROB40
TEMPO 2316/2318 BKN012


Example: see airport list